Time;durP1;ratioP1;P1;durP2;ratioP2;P2;SDS_P1;SDS_P2;PMS_P1;PMS_P2;Temp;Humidity;BMP_temperature;BMP_pressure;BME280_temperature;BME280_humidity;BME280_pressure;Samples;Min_cycle;Max_cycle;Signal;HPM_P1;HPM_P2
2024/03/11 00:00:38;;;;;;;15.75;9.68;;;16.40;99.90;;;;;;5028779;28;20096;-75
2024/03/11 00:03:05;;;;;;;14.45;9.73;;;16.40;99.90;;;;;;5029081;28;20130;-73
2024/03/11 00:05:31;;;;;;;15.88;9.52;;;16.40;99.90;;;;;;5030767;28;20040;-73
2024/03/11 00:07:58;;;;;;;14.88;9.63;;;16.40;99.90;;;;;;5022730;28;20625;-73
2024/03/11 00:10:24;;;;;;;15.63;9.95;;;16.40;99.90;;;;;;5024494;28;20029;-73
2024/03/11 00:12:50;;;;;;;14.18;9.10;;;16.40;99.90;;;;;;5026620;28;21209;-73
2024/03/11 00:15:20;;;;;;;14.45;8.95;;;16.40;99.90;;;;;;5027649;28;20036;-74
2024/03/11 00:17:49;;;;;;;12.68;9.05;;;16.30;99.90;;;;;;5025587;28;20128;-74
2024/03/11 00:20:16;;;;;;;14.15;9.50;;;16.30;99.90;;;;;;5026809;28;20029;-75
2024/03/11 00:22:41;;;;;;;14.55;8.73;;;16.30;99.90;;;;;;5028225;28;20100;-74
2024/03/11 00:25:08;;;;;;;16.60;10.03;;;16.30;99.90;;;;;;5028202;28;20143;-73
2024/03/11 00:27:37;;;;;;;13.55;8.85;;;16.30;99.90;;;;;;5030325;28;20034;-74
2024/03/11 00:30:11;;;;;;;12.88;8.27;;;16.30;99.90;;;;;;5028810;28;20434;-74
2024/03/11 00:32:47;;;;;;;16.15;9.55;;;16.30;99.90;;;;;;5057996;28;20053;-75
2024/03/11 00:35:14;;;;;;;14.23;9.07;;;16.30;99.90;;;;;;5028701;28;20029;-73
2024/03/11 00:37:40;;;;;;;18.10;9.85;;;16.30;99.90;;;;;;5028779;28;20040;-74
2024/03/11 00:40:07;;;;;;;;;;;16.30;99.90;;;;;;5031126;28;20074;-73
2024/03/11 00:42:38;;;;;;;13.05;8.50;;;16.30;99.90;;;;;;5029266;28;19905;-74
2024/03/11 00:45:11;;;;;;;14.10;9.32;;;16.20;99.90;;;;;;5029336;28;20433;-73
2024/03/11 00:47:41;;;;;;;13.90;9.35;;;16.30;99.90;;;;;;5030316;28;20075;-73
2024/03/11 00:50:09;;;;;;;12.80;8.77;;;16.20;99.90;;;;;;5023384;28;20100;-73
2024/03/11 00:52:36;;;;;;;17.02;9.90;;;16.20;99.90;;;;;;5028471;28;20053;-73
2024/03/11 00:55:03;;;;;;;14.38;8.75;;;16.20;99.90;;;;;;5060408;28;20120;-73
2024/03/11 00:57:29;;;;;;;13.20;8.73;;;16.20;99.90;;;;;;5030184;28;20117;-75
2024/03/11 00:59:56;;;;;;;15.00;8.93;;;16.20;99.90;;;;;;5028967;28;20026;-74
2024/03/11 01:02:24;;;;;;;;;;;16.20;99.90;;;;;;5021136;28;20021;-73
2024/03/11 01:04:52;;;;;;;14.30;9.13;;;16.20;99.90;;;;;;5026688;28;19920;-73
2024/03/11 01:07:19;;;;;;;16.05;9.00;;;16.20;99.90;;;;;;5028055;28;20036;-73
2024/03/11 01:09:45;;;;;;;15.70;8.55;;;16.20;99.90;;;;;;5032399;28;20033;-74
2024/03/11 01:12:11;;;;;;;14.73;9.33;;;16.10;99.90;;;;;;5033790;28;20167;-73
2024/03/11 01:14:37;;;;;;;12.93;8.87;;;16.10;99.90;;;;;;5030978;28;20108;-76
2024/03/11 01:17:03;;;;;;;13.32;8.25;;;16.10;99.90;;;;;;5068067;28;20078;-75
2024/03/11 01:19:29;;;;;;;12.95;8.27;;;16.10;99.90;;;;;;5036320;28;20026;-74
2024/03/11 01:21:57;;;;;;;12.70;7.77;;;16.10;99.90;;;;;;5036510;28;20462;-73
2024/03/11 01:24:24;;;;;;;14.40;8.80;;;16.10;99.90;;;;;;5034603;28;20028;-74
2024/03/11 01:26:49;;;;;;;12.73;8.93;;;16.10;99.90;;;;;;5035144;28;20026;-73
2024/03/11 01:29:16;;;;;;;16.07;9.17;;;16.10;99.90;;;;;;5036173;28;20025;-73
2024/03/11 01:31:45;;;;;;;13.05;8.57;;;16.10;99.90;;;;;;5035040;28;20039;-75
2024/03/11 01:34:11;;;;;;;13.25;8.38;;;16.10;99.90;;;;;;5034954;28;20100;-74
2024/03/11 01:36:37;;;;;;;13.65;8.90;;;16.10;99.90;;;;;;5034841;28;20135;-73
2024/03/11 01:39:09;;;;;;;14.47;8.47;;;16.10;99.90;;;;;;5036371;28;20029;-74
2024/03/11 01:41:36;;;;;;;11.90;8.18;;;16.00;99.90;;;;;;5034857;28;20771;-73
2024/03/11 01:44:02;;;;;;;14.57;9.50;;;16.00;99.90;;;;;;5035516;28;20029;-76
2024/03/11 01:46:29;;;;;;;13.70;8.45;;;16.00;99.90;;;;;;5034804;28;20034;-75
2024/03/11 01:48:55;;;;;;;12.95;9.32;;;16.00;99.90;;;;;;5035843;28;20033;-73
2024/03/11 01:51:25;;;;;;;12.70;7.85;;;16.00;99.90;;;;;;5035023;28;20150;-74
2024/03/11 01:53:51;;;;;;;11.98;7.65;;;15.90;99.90;;;;;;5034355;28;20057;-72
2024/03/11 01:56:20;;;;;;;13.43;8.30;;;16.00;99.90;;;;;;5036199;28;20032;-73
2024/03/11 01:58:47;;;;;;;12.88;8.60;;;16.00;99.90;;;;;;5035646;28;20434;-73
2024/03/11 02:01:14;;;;;;;13.40;7.93;;;15.90;99.90;;;;;;5034987;28;20056;-74
2024/03/11 02:03:40;;;;;;;13.18;8.68;;;15.90;99.90;;;;;;5034284;28;20021;-73
2024/03/11 02:06:07;;;;;;;13.57;8.55;;;15.90;99.90;;;;;;5035397;28;20036;-73
2024/03/11 02:08:33;;;;;;;11.60;7.95;;;15.90;99.90;;;;;;5034347;28;20033;-75
2024/03/11 02:10:59;;;;;;;12.38;8.25;;;15.90;99.90;;;;;;5036271;28;20064;-74
2024/03/11 02:13:25;;;;;;;12.27;8.00;;;15.90;99.90;;;;;;5036085;28;20017;-74
2024/03/11 02:15:51;;;;;;;13.17;7.70;;;15.90;99.90;;;;;;5036765;28;20079;-73
2024/03/11 02:18:19;;;;;;;14.63;8.60;;;15.80;99.90;;;;;;5035959;28;20108;-74
2024/03/11 02:20:45;;;;;;;13.80;8.48;;;15.80;99.90;;;;;;5031869;28;20029;-74
2024/03/11 02:23:11;;;;;;;13.02;8.60;;;15.80;99.90;;;;;;5031746;28;20418;-73
2024/03/11 02:25:37;;;;;;;13.93;8.90;;;15.80;99.90;;;;;;5031674;28;20029;-73
2024/03/11 02:28:03;;;;;;;12.23;8.48;;;15.80;99.90;;;;;;5032977;28;20467;-74
2024/03/11 02:30:30;;;;;;;13.13;8.27;;;15.80;99.90;;;;;;5032607;28;20021;-75
2024/03/11 02:32:56;;;;;;;13.48;8.73;;;15.80;99.90;;;;;;5033154;28;20361;-74
2024/03/11 02:35:22;;;;;;;11.80;7.82;;;15.80;99.90;;;;;;5030512;28;20033;-73
2024/03/11 02:37:48;;;;;;;13.63;8.00;;;15.70;99.90;;;;;;5032571;28;20033;-74
2024/03/11 02:40:18;;;;;;;14.13;8.50;;;15.70;99.90;;;;;;5031380;28;20031;-73
2024/03/11 02:42:44;;;;;;;14.30;8.98;;;15.70;99.90;;;;;;5032500;28;20425;-74
2024/03/11 02:45:15;;;;;;;13.73;8.90;;;15.70;99.90;;;;;;5030855;28;20021;-73
2024/03/11 02:47:41;;;;;;;14.15;8.70;;;15.70;99.90;;;;;;5032241;28;20088;-73
2024/03/11 02:50:07;;;;;;;11.60;8.07;;;15.70;99.90;;;;;;5049969;28;20106;-73
2024/03/11 02:52:34;;;;;;;13.50;9.10;;;15.70;99.90;;;;;;5028903;28;20049;-75
2024/03/11 02:55:01;;;;;;;13.95;8.68;;;15.70;99.90;;;;;;5031009;28;20378;-75
2024/03/11 02:57:28;;;;;;;11.13;7.63;;;15.70;99.90;;;;;;5032525;28;20045;-73
2024/03/11 02:59:54;;;;;;;13.80;8.15;;;15.70;99.90;;;;;;5064176;28;20033;-73
2024/03/11 03:02:20;;;;;;;14.18;8.15;;;15.70;99.90;;;;;;5031994;28;20036;-74
2024/03/11 03:04:46;;;;;;;14.52;8.68;;;15.70;99.90;;;;;;5030706;28;20041;-72
2024/03/11 03:07:14;;;;;;;12.03;8.33;;;15.60;99.90;;;;;;5031909;28;20025;-74
2024/03/11 03:09:40;;;;;;;13.13;9.02;;;15.60;99.90;;;;;;5015785;28;20026;-76
2024/03/11 03:12:09;;;;;;;13.63;8.30;;;15.70;99.90;;;;;;5031861;28;20026;-74
2024/03/11 03:14:38;;;;;;;13.05;7.97;;;15.60;99.90;;;;;;5031638;28;20037;-75
2024/03/11 03:17:05;;;;;;;13.32;8.00;;;15.60;99.90;;;;;;5031073;28;20018;-73
2024/03/11 03:19:31;;;;;;;12.23;8.02;;;15.60;99.90;;;;;;5030710;28;20083;-74
2024/03/11 03:21:57;;;;;;;12.25;7.97;;;15.60;99.90;;;;;;5030347;28;20021;-73
2024/03/11 03:24:23;;;;;;;11.93;8.57;;;15.60;99.90;;;;;;5030643;28;20038;-73
2024/03/11 03:26:48;;;;;;;13.73;8.37;;;15.60;99.90;;;;;;5030658;28;20025;-74
2024/03/11 03:29:15;;;;;;;13.73;7.93;;;15.60;99.90;;;;;;5031701;28;20025;-73
2024/03/11 03:31:41;;;;;;;13.75;8.50;;;15.60;99.90;;;;;;5031595;28;20021;-73
2024/03/11 03:34:09;;;;;;;12.32;8.23;;;15.60;99.90;;;;;;5030692;28;20018;-73
2024/03/11 03:36:41;;;;;;;13.23;8.27;;;15.60;99.90;;;;;;5030068;28;20796;-73
2024/03/11 03:39:08;;;;;;;13.50;8.57;;;15.60;99.90;;;;;;5031501;28;20021;-73
2024/03/11 03:41:35;;;;;;;12.90;8.23;;;15.60;99.90;;;;;;5031320;28;20026;-73
2024/03/11 03:44:01;;;;;;;11.77;7.60;;;15.50;99.90;;;;;;5031014;28;20052;-73
2024/03/11 03:46:27;;;;;;;11.68;7.35;;;15.50;99.90;;;;;;5029701;28;20076;-73
2024/03/11 03:48:53;;;;;;;13.07;8.13;;;15.50;99.90;;;;;;5061733;28;20038;-74
2024/03/11 03:51:18;;;;;;;12.63;8.53;;;15.50;99.90;;;;;;5031065;28;20033;-73
2024/03/11 03:53:45;;;;;;;13.97;9.07;;;15.50;99.90;;;;;;5030497;28;20478;-73
2024/03/11 03:56:11;;;;;;;13.63;8.38;;;15.50;99.90;;;;;;5029758;28;20025;-73
2024/03/11 03:58:37;;;;;;;13.23;8.00;;;15.50;99.90;;;;;;5029764;28;20034;-75
2024/03/11 04:01:03;;;;;;;13.87;8.20;;;15.50;99.90;;;;;;5030831;28;20084;-75
2024/03/11 04:03:29;;;;;;;11.23;8.00;;;15.50;99.90;;;;;;5029202;28;20285;-73
2024/03/11 04:05:55;;;;;;;13.10;7.90;;;15.50;99.90;;;;;;5030386;28;20064;-73
2024/03/11 04:08:21;;;;;;;12.20;7.90;;;15.50;99.90;;;;;;5029735;28;20099;-73
2024/03/11 04:10:47;;;;;;;12.33;8.40;;;15.50;99.90;;;;;;5031286;28;20053;-73
2024/03/11 04:13:13;;;;;;;13.95;7.85;;;15.40;99.90;;;;;;5030636;28;20026;-73
2024/03/11 04:15:42;;;;;;;12.17;8.47;;;15.50;99.90;;;;;;5030412;28;20486;-74
2024/03/11 04:18:10;;;;;;;11.63;7.78;;;15.50;99.90;;;;;;5030283;28;20025;-73
2024/03/11 04:20:39;;;;;;;12.55;8.32;;;15.50;99.90;;;;;;5030702;28;20029;-73
2024/03/11 04:23:12;;;;;;;12.43;8.23;;;15.50;99.90;;;;;;5029084;28;20021;-73
2024/03/11 04:25:37;;;;;;;13.60;7.90;;;15.40;99.90;;;;;;5030483;28;20036;-73
2024/03/11 04:28:05;;;;;;;14.20;8.43;;;15.40;99.90;;;;;;5030502;28;20430;-73
2024/03/11 04:30:41;;;;;;;12.05;8.23;;;15.40;99.90;;;;;;5030719;28;20108;-73
2024/03/11 04:33:07;;;;;;;12.27;8.43;;;15.40;99.90;;;;;;5030186;28;20043;-72
2024/03/11 04:35:35;;;;;;;13.60;8.27;;;15.40;99.90;;;;;;5028320;28;20033;-73
2024/03/11 04:38:05;;;;;;;14.25;8.02;;;15.40;99.90;;;;;;5030359;28;20029;-73
2024/03/11 04:40:36;;;;;;;12.85;8.05;;;15.40;99.90;;;;;;5029332;28;20029;-75
2024/03/11 04:43:03;;;;;;;15.10;8.75;;;15.40;99.90;;;;;;5030007;28;20052;-74
2024/03/11 04:45:29;;;;;;;;;;;15.40;99.90;;;;;;5030541;28;20088;-73
2024/03/11 04:47:57;;;;;;;14.20;8.02;;;15.30;99.90;;;;;;5034147;28;20261;-75
2024/03/11 04:50:27;;;;;;;13.25;8.48;;;15.30;99.90;;;;;;5028804;28;20036;-73
2024/03/11 04:52:59;;;;;;;12.30;8.68;;;15.30;99.90;;;;;;5029930;28;20041;-73
2024/03/11 04:55:27;;;;;;;11.98;7.90;;;15.30;99.90;;;;;;5029262;28;20080;-75
2024/03/11 04:57:53;;;;;;;14.05;8.85;;;15.30;99.90;;;;;;5028278;28;20136;-73
2024/03/11 05:00:19;;;;;;;14.02;8.82;;;15.30;99.90;;;;;;5029731;28;20490;-73
2024/03/11 05:02:45;;;;;;;14.77;8.25;;;15.30;99.90;;;;;;5028714;28;20438;-73
2024/03/11 05:05:11;;;;;;;13.20;8.33;;;15.30;99.90;;;;;;5030048;28;20109;-73
2024/03/11 05:07:37;;;;;;;12.57;8.30;;;15.30;99.90;;;;;;5029254;28;20037;-73
2024/03/11 05:10:04;;;;;;;12.98;8.18;;;15.30;99.90;;;;;;5028921;28;20033;-73
2024/03/11 05:12:30;;;;;;;;;;;15.30;99.90;;;;;;5029139;28;20041;-74
2024/03/11 05:14:56;;;;;;;13.30;8.98;;;15.30;99.90;;;;;;5030271;28;19909;-73
2024/03/11 05:17:22;;;;;;;13.15;7.78;;;15.30;99.90;;;;;;5028756;28;20033;-74
2024/03/11 05:19:48;;;;;;;14.17;8.47;;;15.30;99.90;;;;;;5028436;28;20040;-75
2024/03/11 05:22:14;;;;;;;13.17;8.50;;;15.30;99.90;;;;;;5028867;28;20482;-75
2024/03/11 05:24:40;;;;;;;11.20;7.53;;;15.30;99.90;;;;;;5029707;28;20758;-73
2024/03/11 05:27:08;;;;;;;12.80;8.87;;;15.30;99.90;;;;;;5028514;28;20113;-73
2024/03/11 05:29:35;;;;;;;13.68;8.80;;;15.20;99.90;;;;;;5028124;28;20370;-73
2024/03/11 05:32:04;;;;;;;13.18;8.52;;;15.20;99.90;;;;;;5028429;28;20025;-75
2024/03/11 05:34:29;;;;;;;12.68;8.93;;;15.30;99.90;;;;;;5030158;28;20069;-73
2024/03/11 05:36:55;;;;;;;12.97;7.80;;;15.20;99.90;;;;;;5029606;28;20053;-74
2024/03/11 05:39:21;;;;;;;13.75;8.15;;;15.20;99.90;;;;;;5029735;28;20029;-73
2024/03/11 05:41:47;;;;;;;13.23;8.73;;;15.20;99.90;;;;;;5029867;28;20080;-74
2024/03/11 05:44:15;;;;;;;13.20;8.50;;;15.20;99.90;;;;;;5029594;28;20029;-74
2024/03/11 05:46:41;;;;;;;25.55;8.73;;;15.20;99.90;;;;;;5028337;28;20045;-74
2024/03/11 05:49:13;;;;;;;14.45;8.75;;;15.20;99.90;;;;;;5029690;28;20088;-73
2024/03/11 05:51:42;;;;;;;15.90;7.68;;;15.20;99.90;;;;;;5028328;28;20041;-73
2024/03/11 05:54:17;;;;;;;20.55;8.63;;;15.20;99.90;;;;;;5029501;28;20252;-73
2024/03/11 05:56:58;;;;;;;20.35;9.57;;;15.20;99.90;;;;;;5032122;28;20071;-74
2024/03/11 05:59:25;;;;;;;13.05;8.15;;;15.20;99.90;;;;;;5027857;28;20468;-75
2024/03/11 06:01:52;;;;;;;14.32;9.00;;;15.20;99.90;;;;;;5024126;28;20025;-73
2024/03/11 06:04:18;;;;;;;;;;;15.20;99.90;;;;;;5033319;28;20033;-72
2024/03/11 06:06:48;;;;;;;15.07;8.07;;;15.20;99.90;;;;;;5033102;28;19920;-72
2024/03/11 06:09:15;;;;;;;16.15;8.82;;;15.20;99.90;;;;;;5032787;28;20029;-74
2024/03/11 06:11:45;;;;;;;17.83;8.57;;;15.20;99.90;;;;;;5032771;28;20025;-74
2024/03/11 06:14:14;;;;;;;13.35;8.90;;;15.30;99.90;;;;;;5065176;28;20029;-74
2024/03/11 06:16:44;;;;;;;17.00;9.80;;;15.30;99.90;;;;;;5031878;28;20032;-74
2024/03/11 06:19:11;;;;;;;14.60;9.55;;;15.40;99.90;;;;;;5033220;28;20108;-74
2024/03/11 06:21:37;;;;;;;22.25;9.82;;;15.40;99.90;;;;;;5032566;28;20014;-73
2024/03/11 06:24:05;;;;;;;18.05;9.05;;;15.40;99.90;;;;;;5031830;28;20103;-74
2024/03/11 06:26:34;;;;;;;17.80;9.57;;;15.40;99.90;;;;;;5032758;28;20108;-74
2024/03/11 06:29:01;;;;;;;16.52;9.88;;;15.40;99.90;;;;;;5031294;28;20024;-74
2024/03/11 06:31:27;;;;;;;13.38;9.27;;;15.40;99.90;;;;;;5032762;28;20033;-74
2024/03/11 06:33:55;;;;;;;15.13;9.15;;;15.40;99.90;;;;;;5032648;28;20030;-74
2024/03/11 06:36:22;;;;;;;16.60;9.63;;;15.40;99.90;;;;;;5032693;28;20021;-74
2024/03/11 06:38:48;;;;;;;19.33;10.35;;;15.30;99.90;;;;;;5031624;28;20462;-75
2024/03/11 06:41:19;;;;;;;15.80;9.57;;;15.30;99.90;;;;;;5031749;28;20116;-74
2024/03/11 06:43:45;;;;;;;16.45;9.68;;;15.40;99.90;;;;;;5031388;28;20370;-74
2024/03/11 06:46:13;;;;;;;15.25;10.35;;;15.40;99.90;;;;;;5032912;28;20030;-75
2024/03/11 06:48:43;;;;;;;17.23;10.13;;;15.30;99.90;;;;;;5032190;28;20371;-73
2024/03/11 06:51:10;;;;;;;15.88;9.93;;;15.30;99.90;;;;;;5031448;28;20637;-73
2024/03/11 06:53:36;;;;;;;17.13;9.60;;;15.30;99.90;;;;;;5032209;28;20046;-74
2024/03/11 06:56:12;;;;;;;16.88;9.63;;;15.30;99.90;;;;;;5031161;28;20691;-74
2024/03/11 06:58:38;;;;;;;17.08;10.52;;;15.30;99.90;;;;;;5032102;28;20036;-76
2024/03/11 07:01:07;;;;;;;16.48;9.90;;;15.30;99.90;;;;;;5032474;28;20095;-73
2024/03/11 07:03:35;;;;;;;16.02;9.90;;;15.30;99.90;;;;;;5030921;28;20137;-74
2024/03/11 07:06:02;;;;;;;15.45;9.80;;;15.30;99.90;;;;;;5030356;28;20038;-76
2024/03/11 07:08:29;;;;;;;16.65;9.63;;;15.30;99.90;;;;;;5030739;28;20099;-73
2024/03/11 07:10:59;;;;;;;17.88;10.10;;;15.30;99.90;;;;;;5030740;28;20025;-74
2024/03/11 07:13:25;;;;;;;15.20;9.52;;;15.30;99.90;;;;;;5031917;28;20459;-74
2024/03/11 07:15:51;;;;;;;15.27;10.40;;;15.30;99.90;;;;;;5032330;28;20101;-73
2024/03/11 07:18:16;;;;;;;18.87;11.03;;;15.30;99.90;;;;;;5030559;28;20108;-74
2024/03/11 07:20:43;;;;;;;16.07;9.97;;;15.30;99.90;;;;;;5030556;28;20675;-74
2024/03/11 07:23:10;;;;;;;19.48;10.13;;;15.30;99.90;;;;;;5030305;28;20032;-74
2024/03/11 07:25:36;;;;;;;16.25;10.30;;;15.30;99.90;;;;;;5030554;28;20033;-75
2024/03/11 07:28:02;;;;;;;17.77;10.87;;;15.30;99.90;;;;;;5031715;28;20503;-73
2024/03/11 07:30:28;;;;;;;18.47;10.50;;;15.30;99.90;;;;;;5030563;28;20029;-73
2024/03/11 07:33:08;;;;;;;17.08;10.02;;;15.30;99.90;;;;;;5030440;28;20037;-73
2024/03/11 07:35:37;;;;;;;16.05;10.15;;;15.30;99.90;;;;;;5032013;28;20037;-74
2024/03/11 07:38:05;;;;;;;23.75;10.90;;;15.30;99.90;;;;;;5031636;28;20108;-74
2024/03/11 07:40:32;;;;;;;22.52;9.93;;;15.20;99.90;;;;;;5030464;28;20025;-75
2024/03/11 07:42:59;;;;;;;16.35;9.88;;;15.30;99.90;;;;;;5030001;28;20080;-73
2024/03/11 07:45:25;;;;;;;30.45;17.95;;;15.30;99.90;;;;;;5030019;28;20026;-73
2024/03/11 07:47:53;;;;;;;432.08;262.48;;;15.30;99.90;;;;;;5031762;28;20072;-74
2024/03/11 07:50:23;;;;;;;158.25;91.20;;;15.30;99.90;;;;;;5029937;28;20029;-73
2024/03/11 07:52:49;;;;;;;206.07;148.50;;;15.30;99.90;;;;;;5028291;28;20055;-72
2024/03/11 07:55:17;;;;;;;;;;;15.30;99.90;;;;;;5031231;28;20099;-72
2024/03/11 07:57:45;;;;;;;151.70;99.35;;;15.40;99.90;;;;;;5031135;28;19905;-73
2024/03/11 08:00:17;;;;;;;135.50;90.90;;;15.30;99.90;;;;;;5029714;28;20037;-73
2024/03/11 08:02:52;;;;;;;127.15;85.88;;;15.40;99.90;;;;;;5029914;28;20125;-74
2024/03/11 08:05:18;;;;;;;126.43;82.03;;;15.40;99.90;;;;;;5031227;28;20040;-73
2024/03/11 08:07:45;;;;;;;115.97;77.53;;;15.50;99.90;;;;;;5031137;28;20030;-74
2024/03/11 08:10:12;;;;;;;111.05;72.45;;;15.50;99.90;;;;;;5030851;28;20498;-73
2024/03/11 08:12:39;;;;;;;99.57;69.30;;;15.50;99.90;;;;;;5030703;28;20105;-72
2024/03/11 08:15:12;;;;;;;;;;;15.50;99.90;;;;;;5030957;28;20541;-73
2024/03/11 08:17:39;;;;;;;102.85;64.82;;;15.50;99.90;;;;;;5028719;28;20313;-73
2024/03/11 08:20:09;;;;;;;91.25;59.70;;;15.50;99.90;;;;;;5035143;28;20025;-73
2024/03/11 08:22:43;;;;;;;92.00;59.65;;;15.50;99.90;;;;;;5032603;28;20033;-74
2024/03/11 08:25:11;;;;;;;94.82;62.47;;;15.50;99.90;;;;;;5025066;28;20168;-74
2024/03/11 08:27:37;;;;;;;89.45;59.25;;;15.60;99.90;;;;;;5061410;28;20121;-73
2024/03/11 08:30:07;;;;;;;80.80;52.10;;;15.60;99.90;;;;;;5062246;28;20484;-74
2024/03/11 08:32:33;;;;;;;80.72;52.30;;;15.60;99.90;;;;;;5030438;28;20031;-74
2024/03/11 08:34:59;;;;;;;78.30;52.47;;;15.60;99.90;;;;;;5030394;28;20033;-73
2024/03/11 08:37:25;;;;;;;75.47;48.13;;;15.60;99.90;;;;;;5051700;28;20022;-73
2024/03/11 08:39:51;;;;;;;77.22;48.50;;;15.70;99.90;;;;;;5030802;28;20075;-73
2024/03/11 08:42:18;;;;;;;72.27;46.40;;;15.70;99.90;;;;;;5029199;28;20717;-73
2024/03/11 08:44:45;;;;;;;68.78;46.30;;;15.70;99.90;;;;;;5030089;28;20117;-73
2024/03/11 08:47:13;;;;;;;65.13;44.05;;;15.70;99.90;;;;;;5030576;28;20087;-73
2024/03/11 08:49:40;;;;;;;68.57;42.17;;;15.70;99.90;;;;;;5029869;28;20033;-73
2024/03/11 08:52:06;;;;;;;67.53;43.83;;;15.70;99.90;;;;;;5029941;28;20045;-74
2024/03/11 08:54:32;;;;;;;68.60;41.25;;;15.80;99.90;;;;;;5022261;28;20459;-74
2024/03/11 08:56:59;;;;;;;59.30;40.60;;;15.80;99.90;;;;;;5026461;28;20033;-75
2024/03/11 08:59:26;;;;;;;67.85;42.88;;;15.80;99.90;;;;;;5061855;28;20120;-73
2024/03/11 09:01:57;;;;;;;;;;;15.80;99.90;;;;;;5030768;28;20036;-72
2024/03/11 09:04:24;;;;;;;60.28;38.35;;;15.80;99.90;;;;;;5025368;28;19928;-74
2024/03/11 09:06:50;;;;;;;64.53;40.88;;;15.90;99.90;;;;;;5025255;28;20033;-73
2024/03/11 09:09:15;;;;;;;61.33;39.20;;;15.90;99.90;;;;;;5025169;28;20363;-73
2024/03/11 09:11:42;;;;;;;65.30;38.03;;;15.90;99.90;;;;;;5026879;28;20033;-73
2024/03/11 09:14:10;;;;;;;55.92;37.58;;;15.90;99.90;;;;;;5025221;28;20078;-73
2024/03/11 09:16:38;;;;;;;57.05;37.00;;;16.00;99.90;;;;;;5026228;28;20029;-75
2024/03/11 09:19:04;;;;;;;51.83;33.67;;;16.00;99.90;;;;;;5026268;28;20494;-72
2024/03/11 09:21:31;;;;;;;59.15;35.63;;;16.00;99.90;;;;;;5029456;28;20025;-73
2024/03/11 09:23:57;;;;;;;50.78;33.50;;;16.10;99.90;;;;;;5028452;28;20116;-73
2024/03/11 09:26:23;;;;;;;49.53;30.77;;;16.10;99.90;;;;;;5018857;28;20069;-75
2024/03/11 09:28:49;;;;;;;45.42;30.83;;;16.10;99.90;;;;;;5027838;28;20022;-74
2024/03/11 09:31:15;;;;;;;46.80;30.70;;;16.10;99.90;;;;;;5032905;28;20075;-75
2024/03/11 09:33:44;;;;;;;48.83;31.50;;;16.10;99.90;;;;;;5031954;28;20022;-73
2024/03/11 09:36:10;;;;;;;44.67;30.38;;;16.10;99.90;;;;;;5026463;28;20030;-72
2024/03/11 09:38:38;;;;;;;47.53;29.73;;;16.20;99.90;;;;;;5027116;28;20096;-73
2024/03/11 09:41:16;;;;;;;45.83;29.63;;;16.20;99.90;;;;;;5032540;28;20056;-74
2024/03/11 09:43:48;;;;;;;46.72;29.63;;;16.20;99.90;;;;;;5033948;28;20035;-75
2024/03/11 09:46:21;;;;;;;48.78;29.02;;;16.20;99.90;;;;;;5032601;28;20428;-74
2024/03/11 09:48:51;;;;;;;233.38;130.55;;;16.20;99.90;;;;;;5032316;28;20050;-74
2024/03/11 09:51:24;;;;;;;138.98;81.00;;;16.30;99.90;;;;;;5033708;28;20100;-74
2024/03/11 09:53:54;;;;;;;95.25;54.95;;;16.30;99.90;;;;;;5021711;28;20483;-72
2024/03/11 09:56:23;;;;;;;90.90;53.92;;;16.30;99.90;;;;;;5030147;28;20112;-73
2024/03/11 09:58:57;;;;;;;86.35;49.85;;;16.30;99.90;;;;;;5032311;28;20068;-73
2024/03/11 10:01:32;;;;;;;69.93;43.72;;;16.40;99.90;;;;;;5020286;28;20373;-73
2024/03/11 10:03:58;;;;;;;72.05;44.38;;;16.30;99.90;;;;;;5032178;28;20025;-74
2024/03/11 10:06:27;;;;;;;69.07;42.13;;;16.40;99.90;;;;;;5033690;28;20035;-74
2024/03/11 10:08:53;;;;;;;72.93;41.53;;;16.40;99.90;;;;;;5033443;28;20079;-74
2024/03/11 10:11:20;;;;;;;65.88;40.40;;;16.40;99.90;;;;;;5033127;28;20462;-75
2024/03/11 10:13:47;;;;;;;61.25;39.22;;;16.40;99.90;;;;;;5033217;28;20025;-73
2024/03/11 10:16:21;;;;;;;;;;;16.40;99.90;;;;;;5033646;28;20681;-71
2024/03/11 10:19:13;;;;;;;57.83;36.25;;;16.40;99.90;;;;;;5033137;28;19996;-73
2024/03/11 10:21:40;;;;;;;59.88;36.55;;;16.40;99.90;;;;;;5032789;28;20025;-72
2024/03/11 10:24:08;;;;;;;56.90;36.85;;;16.40;99.90;;;;;;5033141;28;20053;-73
2024/03/11 10:26:41;;;;;;;60.22;37.38;;;16.40;99.90;;;;;;5032498;28;20026;-74
2024/03/11 10:29:16;;;;;;;61.42;36.63;;;16.50;99.90;;;;;;5031537;28;20029;-73
2024/03/11 10:31:45;;;;;;;53.90;33.97;;;16.50;99.90;;;;;;5032484;28;20021;-74
2024/03/11 10:34:21;;;;;;;55.50;33.47;;;16.50;99.90;;;;;;5031392;28;20141;-73
2024/03/11 10:36:54;;;;;;;51.60;33.53;;;16.50;99.90;;;;;;5032597;28;20419;-73
2024/03/11 10:41:50;;;;;;;49.65;30.92;;;16.60;99.90;;;;;;5031428;28;20018;-73
2024/03/11 10:44:19;;;;;;;51.55;31.83;;;16.60;99.90;;;;;;5030998;28;20064;-74
2024/03/11 10:46:45;;;;;;;46.20;29.65;;;16.60;99.90;;;;;;5032643;28;20367;-73
2024/03/11 10:49:15;;;;;;;49.97;30.10;;;16.60;99.90;;;;;;5030973;28;20022;-73
2024/03/11 10:51:49;;;;;;;49.92;31.55;;;16.60;99.90;;;;;;5031162;28;20032;-72
2024/03/11 10:54:31;;;;;;;46.78;29.50;;;16.70;99.90;;;;;;5031560;28;20091;-73
2024/03/11 10:56:58;;;;;;;43.90;28.08;;;16.70;99.90;;;;;;5032576;28;20076;-71
2024/03/11 10:59:34;;;;;;;46.80;28.80;;;16.70;99.90;;;;;;5032294;28;20071;-73
2024/03/11 11:02:04;;;;;;;57.13;33.30;;;16.80;99.90;;;;;;5031186;28;20021;-74
2024/03/11 11:04:33;;;;;;;52.85;31.20;;;16.80;99.90;;;;;;5030763;28;20028;-72
2024/03/11 11:07:02;;;;;;;49.60;30.27;;;16.80;99.90;;;;;;5032402;28;20026;-73
2024/03/11 11:09:31;;;;;;;48.63;29.05;;;16.90;99.90;;;;;;5030713;28;20419;-72
2024/03/11 11:11:57;;;;;;;48.33;29.77;;;16.90;99.90;;;;;;5032306;28;20021;-72
2024/03/11 11:14:25;;;;;;;41.95;27.33;;;16.90;99.90;;;;;;5032291;28;20029;-72
2024/03/11 11:16:51;;;;;;;46.15;27.30;;;16.90;99.90;;;;;;5031997;28;20109;-72
2024/03/11 11:19:23;;;;;;;43.58;26.85;;;16.90;99.90;;;;;;5032113;28;20021;-73
2024/03/11 11:21:53;;;;;;;41.85;25.38;;;16.90;99.90;;;;;;5031872;28;20083;-75
2024/03/11 11:24:32;;;;;;;41.75;25.98;;;16.80;99.90;;;;;;5031916;28;20041;-73
2024/03/11 11:26:58;;;;;;;43.90;26.80;;;16.80;99.90;;;;;;5017878;28;20434;-73
2024/03/11 11:29:29;;;;;;;38.17;23.92;;;16.80;99.90;;;;;;5031871;28;20029;-74
2024/03/11 11:32:08;;;;;;;38.88;24.23;;;16.80;99.90;;;;;;5031325;28;20475;-71
2024/03/11 11:34:46;;;;;;;38.88;23.60;;;16.80;99.90;;;;;;5031526;28;20037;-72
2024/03/11 11:37:22;;;;;;;38.53;23.52;;;16.80;99.90;;;;;;5030429;28;20032;-72
2024/03/11 11:39:50;;;;;;;39.40;23.90;;;16.80;99.90;;;;;;5027991;28;20021;-73
2024/03/11 11:42:38;;;;;;;35.92;22.05;;;16.80;99.90;;;;;;5028155;28;20021;-73
2024/03/11 11:45:11;;;;;;;35.17;22.45;;;16.80;99.90;;;;;;5027562;28;20030;-73
2024/03/11 11:47:40;;;;;;;32.65;20.40;;;16.80;99.90;;;;;;5027570;28;20025;-73
2024/03/11 11:50:30;;;;;;;48.78;27.30;;;16.70;99.90;;;;;;5027903;28;20026;-74
2024/03/11 11:53:03;;;;;;;37.97;21.75;;;16.70;99.90;;;;;;5027272;28;20049;-71
2024/03/11 11:55:29;;;;;;;38.85;23.08;;;16.70;99.90;;;;;;5026122;28;20039;-72
2024/03/11 11:58:10;;;;;;;39.17;21.80;;;16.70;99.90;;;;;;5026007;28;20032;-72
2024/03/11 12:00:40;;;;;;;39.70;21.88;;;16.70;99.90;;;;;;5024847;28;20033;-75
2024/03/11 12:03:32;;;;;;;38.97;21.23;;;16.70;99.90;;;;;;5016359;28;20025;-71
2024/03/11 12:06:09;;;;;;;34.45;20.60;;;16.70;99.90;;;;;;5027970;28;20021;-71
2024/03/11 12:08:35;;;;;;;34.22;19.02;;;16.70;99.90;;;;;;5027951;28;20021;-72
2024/03/11 12:11:14;;;;;;;38.00;19.38;;;16.70;99.90;;;;;;5027694;28;20029;-74
2024/03/11 12:13:42;;;;;;;30.17;18.50;;;16.70;99.90;;;;;;5028479;28;20114;-75
2024/03/11 12:16:12;;;;;;;32.15;19.42;;;16.70;99.90;;;;;;5027598;28;20537;-73
2024/03/11 12:18:41;;;;;;;30.05;17.98;;;16.70;99.90;;;;;;5029485;28;20057;-73
2024/03/11 12:21:13;;;;;;;34.33;19.20;;;16.70;99.90;;;;;;5030624;28;20021;-74
2024/03/11 12:23:41;;;;;;;29.10;18.35;;;16.80;99.90;;;;;;5029519;28;20473;-73
2024/03/11 12:26:09;;;;;;;37.00;18.40;;;16.80;99.90;;;;;;5030522;28;20043;-71
2024/03/11 12:28:37;;;;;;;29.67;18.23;;;16.80;99.90;;;;;;5030679;28;20021;-72
2024/03/11 12:31:05;;;;;;;32.53;18.25;;;16.80;99.90;;;;;;5030642;28;20044;-71
2024/03/11 12:33:34;;;;;;;29.38;17.08;;;16.80;99.90;;;;;;5024755;28;20455;-74
2024/03/11 12:36:04;;;;;;;28.55;17.50;;;16.80;99.90;;;;;;5023545;28;20071;-73
2024/03/11 12:38:32;;;;;;;27.45;16.50;;;16.80;99.90;;;;;;5029474;28;20022;-74
2024/03/11 12:40:58;;;;;;;30.63;17.25;;;16.80;99.90;;;;;;5031083;28;20026;-74
2024/03/11 12:43:30;;;;;;;28.00;17.20;;;16.70;99.90;;;;;;5030693;28;20026;-74